Azua, Dominican Republic
Current Conditions -  °F | °C
As of 1:00 PM on Monday 20 Oct 2014 (Local Time) from MDST Reporting Station
Scattered Clouds Scattered Clouds  
Wind Chill: 88°   Ceiling: Unl
Heat Index: 93°   Visibility: 6mi
Dew Point: 70°   Wind: 7mph
Humidity: 55%   Direction: 150°SSE
Pressure: 29.94"   Gusts: NA
Location:  18.46°N, 70.74°W
Report Text: MDST 201700Z 15006KT 9999 FEW018CB SCT023 31/21 Q1014 CB/SW
Loading
Personal Weather Stations






























Interactive Weather Map
Tropical Storm Tracking
New forecast layout! Learn more

10-Day Weather Forecast

Advertisements
Track Severe Weather on mobile